sensor_id;sensor_type;location;lat;lon;timestamp;P1;durP1;ratioP1;P2;durP2;ratioP2
44434;SDS011;30138;20.964;105.830;2022-11-04T00:00:14;123.70;;;72.00;;
44434;SDS011;30138;20.964;105.830;2022-11-04T00:05:21;123.03;;;72.22;;
44434;SDS011;30138;20.964;105.830;2022-11-04T00:10:29;119.97;;;70.18;;
44434;SDS011;30138;20.964;105.830;2022-11-04T00:15:49;120.13;;;71.03;;
44434;SDS011;30138;20.964;105.830;2022-11-04T00:21:20;120.00;;;67.90;;
44434;SDS011;30138;20.964;105.830;2022-11-04T00:26:45;113.60;;;69.15;;
44434;SDS011;30138;20.964;105.830;2022-11-04T00:32:08;123.05;;;72.82;;
44434;SDS011;30138;20.964;105.830;2022-11-04T00:37:33;123.60;;;76.65;;
44434;SDS011;30138;20.964;105.830;2022-11-04T00:42:43;135.98;;;75.93;;
44434;SDS011;30138;20.964;105.830;2022-11-04T00:47:50;121.13;;;75.18;;
44434;SDS011;30138;20.964;105.830;2022-11-04T00:52:57;124.63;;;74.65;;
44434;SDS011;30138;20.964;105.830;2022-11-04T00:58:06;114.63;;;72.18;;
44434;SDS011;30138;20.964;105.830;2022-11-04T01:03:12;114.88;;;71.93;;
44434;SDS011;30138;20.964;105.830;2022-11-04T01:08:20;115.32;;;70.80;;
44434;SDS011;30138;20.964;105.830;2022-11-04T01:13:29;118.25;;;69.65;;
44434;SDS011;30138;20.964;105.830;2022-11-04T01:18:36;107.22;;;68.30;;
44434;SDS011;30138;20.964;105.830;2022-11-04T01:23:44;114.70;;;67.18;;
44434;SDS011;30138;20.964;105.830;2022-11-04T01:28:53;105.57;;;67.38;;
44434;SDS011;30138;20.964;105.830;2022-11-04T01:34:01;107.32;;;65.40;;
44434;SDS011;30138;20.964;105.830;2022-11-04T01:39:07;96.78;;;62.13;;
44434;SDS011;30138;20.964;105.830;2022-11-04T01:49:53;95.68;;;61.90;;
44434;SDS011;30138;20.964;105.830;2022-11-04T01:55:05;95.40;;;61.80;;
44434;SDS011;30138;20.964;105.830;2022-11-04T02:00:17;96.97;;;60.92;;
44434;SDS011;30138;20.964;105.830;2022-11-04T02:05:24;83.95;;;57.33;;
44434;SDS011;30138;20.964;105.830;2022-11-04T02:10:32;82.18;;;56.55;;
44434;SDS011;30138;20.964;105.830;2022-11-04T02:15:42;82.88;;;56.55;;
44434;SDS011;30138;20.964;105.830;2022-11-04T02:20:59;91.55;;;58.42;;
44434;SDS011;30138;20.964;105.830;2022-11-04T02:26:50;91.90;;;58.85;;
44434;SDS011;30138;20.964;105.830;2022-11-04T02:32:29;93.22;;;60.38;;
44434;SDS011;30138;20.964;105.830;2022-11-04T02:37:50;87.55;;;58.50;;
44434;SDS011;30138;20.964;105.830;2022-11-04T02:43:06;94.70;;;61.05;;
44434;SDS011;30138;20.964;105.830;2022-11-04T02:48:27;101.72;;;62.53;;
44434;SDS011;30138;20.964;105.830;2022-11-04T02:53:40;89.80;;;60.90;;
44434;SDS011;30138;20.964;105.830;2022-11-04T02:58:51;85.45;;;59.88;;
44434;SDS011;30138;20.964;105.830;2022-11-04T03:09:11;92.95;;;60.53;;
44434;SDS011;30138;20.964;105.830;2022-11-04T03:14:19;85.63;;;60.28;;
44434;SDS011;30138;20.964;105.830;2022-11-04T03:19:37;88.18;;;57.58;;
44434;SDS011;30138;20.964;105.830;2022-11-04T03:24:47;85.88;;;57.15;;
44434;SDS011;30138;20.964;105.830;2022-11-04T03:29:55;85.53;;;57.17;;
44434;SDS011;30138;20.964;105.830;2022-11-04T03:35:08;88.80;;;54.67;;
44434;SDS011;30138;20.964;105.830;2022-11-04T03:40:17;90.57;;;57.30;;
44434;SDS011;30138;20.964;105.830;2022-11-04T03:45:25;85.60;;;54.67;;
44434;SDS011;30138;20.964;105.830;2022-11-04T03:50:38;87.90;;;57.08;;
44434;SDS011;30138;20.964;105.830;2022-11-04T03:55:52;83.22;;;56.15;;
44434;SDS011;30138;20.964;105.830;2022-11-04T04:01:19;93.38;;;57.33;;
44434;SDS011;30138;20.964;105.830;2022-11-04T04:06:38;89.88;;;57.28;;
44434;SDS011;30138;20.964;105.830;2022-11-04T04:11:51;88.90;;;57.85;;
44434;SDS011;30138;20.964;105.830;2022-11-04T04:17:02;90.00;;;59.97;;
44434;SDS011;30138;20.964;105.830;2022-11-04T04:27:22;88.93;;;58.17;;
44434;SDS011;30138;20.964;105.830;2022-11-04T04:32:35;99.18;;;62.05;;
44434;SDS011;30138;20.964;105.830;2022-11-04T04:37:49;89.68;;;60.17;;
44434;SDS011;30138;20.964;105.830;2022-11-04T04:43:20;90.50;;;58.67;;
44434;SDS011;30138;20.964;105.830;2022-11-04T04:48:43;88.00;;;58.10;;
44434;SDS011;30138;20.964;105.830;2022-11-04T04:53:52;86.03;;;55.97;;
44434;SDS011;30138;20.964;105.830;2022-11-04T04:58:59;86.32;;;55.05;;
44434;SDS011;30138;20.964;105.830;2022-11-04T05:04:05;87.35;;;55.00;;
44434;SDS011;30138;20.964;105.830;2022-11-04T05:09:14;80.70;;;51.28;;
44434;SDS011;30138;20.964;105.830;2022-11-04T05:14:20;76.40;;;50.63;;
44434;SDS011;30138;20.964;105.830;2022-11-04T05:19:27;68.95;;;47.53;;
44434;SDS011;30138;20.964;105.830;2022-11-04T05:24:35;67.65;;;46.22;;
44434;SDS011;30138;20.964;105.830;2022-11-04T05:29:43;69.35;;;45.78;;
44434;SDS011;30138;20.964;105.830;2022-11-04T05:34:50;70.63;;;44.58;;
44434;SDS011;30138;20.964;105.830;2022-11-04T05:39:58;69.03;;;43.95;;
44434;SDS011;30138;20.964;105.830;2022-11-04T05:45:09;58.67;;;41.38;;
44434;SDS011;30138;20.964;105.830;2022-11-04T05:50:19;64.55;;;42.00;;
44434;SDS011;30138;20.964;105.830;2022-11-04T05:55:27;58.03;;;39.65;;
44434;SDS011;30138;20.964;105.830;2022-11-04T06:00:34;53.15;;;36.67;;
44434;SDS011;30138;20.964;105.830;2022-11-04T06:05:41;51.10;;;37.00;;
44434;SDS011;30138;20.964;105.830;2022-11-04T06:10:49;55.78;;;37.22;;
44434;SDS011;30138;20.964;105.830;2022-11-04T06:15:57;54.45;;;38.42;;
44434;SDS011;30138;20.964;105.830;2022-11-04T06:21:07;54.95;;;37.58;;
44434;SDS011;30138;20.964;105.830;2022-11-04T06:26:24;52.47;;;35.78;;
44434;SDS011;30138;20.964;105.830;2022-11-04T06:31:32;59.20;;;35.22;;
44434;SDS011;30138;20.964;105.830;2022-11-04T06:36:38;49.55;;;34.70;;
44434;SDS011;30138;20.964;105.830;2022-11-04T06:41:48;46.72;;;35.10;;
44434;SDS011;30138;20.964;105.830;2022-11-04T06:46:55;49.92;;;34.15;;
44434;SDS011;30138;20.964;105.830;2022-11-04T06:52:01;51.47;;;33.88;;
44434;SDS011;30138;20.964;105.830;2022-11-04T06:57:09;54.80;;;33.63;;
44434;SDS011;30138;20.964;105.830;2022-11-04T07:02:17;53.33;;;34.58;;
44434;SDS011;30138;20.964;105.830;2022-11-04T07:07:24;47.60;;;34.28;;
44434;SDS011;30138;20.964;105.830;2022-11-04T07:12:35;49.78;;;33.58;;
44434;SDS011;30138;20.964;105.830;2022-11-04T07:17:41;51.30;;;34.80;;
44434;SDS011;30138;20.964;105.830;2022-11-04T07:22:51;48.90;;;34.42;;
44434;SDS011;30138;20.964;105.830;2022-11-04T07:28:04;51.47;;;33.33;;
44434;SDS011;30138;20.964;105.830;2022-11-04T07:33:14;49.33;;;33.20;;
44434;SDS011;30138;20.964;105.830;2022-11-04T07:38:20;45.75;;;32.33;;
44434;SDS011;30138;20.964;105.830;2022-11-04T07:43:29;54.80;;;33.65;;
44434;SDS011;30138;20.964;105.830;2022-11-04T07:48:37;51.50;;;33.05;;
44434;SDS011;30138;20.964;105.830;2022-11-04T07:53:44;45.97;;;32.53;;
44434;SDS011;30138;20.964;105.830;2022-11-04T07:58:53;41.80;;;30.50;;
44434;SDS011;30138;20.964;105.830;2022-11-04T08:04:00;48.20;;;30.83;;
44434;SDS011;30138;20.964;105.830;2022-11-04T08:09:08;43.88;;;31.08;;
44434;SDS011;30138;20.964;105.830;2022-11-04T08:14:17;43.28;;;30.52;;
44434;SDS011;30138;20.964;105.830;2022-11-04T08:19:23;42.38;;;29.85;;
44434;SDS011;30138;20.964;105.830;2022-11-04T08:24:30;40.33;;;28.90;;
44434;SDS011;30138;20.964;105.830;2022-11-04T08:29:39;47.38;;;29.55;;
44434;SDS011;30138;20.964;105.830;2022-11-04T08:34:48;42.22;;;29.63;;
44434;SDS011;30138;20.964;105.830;2022-11-04T08:39:55;36.90;;;27.77;;
44434;SDS011;30138;20.964;105.830;2022-11-04T08:45:04;43.15;;;28.30;;
44434;SDS011;30138;20.964;105.830;2022-11-04T08:50:12;46.00;;;28.30;;
44434;SDS011;30138;20.964;105.830;2022-11-04T08:55:20;40.53;;;28.27;;
44434;SDS011;30138;20.964;105.830;2022-11-04T09:00:28;42.20;;;27.98;;
44434;SDS011;30138;20.964;105.830;2022-11-04T09:05:36;41.03;;;28.85;;
44434;SDS011;30138;20.964;105.830;2022-11-04T09:10:45;38.53;;;27.33;;
44434;SDS011;30138;20.964;105.830;2022-11-04T09:15:57;43.27;;;28.90;;
44434;SDS011;30138;20.964;105.830;2022-11-04T09:21:05;39.72;;;27.80;;
44434;SDS011;30138;20.964;105.830;2022-11-04T09:26:15;41.10;;;28.02;;
44434;SDS011;30138;20.964;105.830;2022-11-04T09:31:24;43.70;;;28.60;;
44434;SDS011;30138;20.964;105.830;2022-11-04T09:36:32;45.03;;;27.40;;
44434;SDS011;30138;20.964;105.830;2022-11-04T09:41:50;39.33;;;27.30;;
44434;SDS011;30138;20.964;105.830;2022-11-04T09:47:25;39.80;;;27.67;;
44434;SDS011;30138;20.964;105.830;2022-11-04T09:52:36;38.50;;;27.75;;
44434;SDS011;30138;20.964;105.830;2022-11-04T09:57:50;46.00;;;27.92;;
44434;SDS011;30138;20.964;105.830;2022-11-04T10:03:04;36.95;;;27.90;;
44434;SDS011;30138;20.964;105.830;2022-11-04T10:08:33;38.08;;;27.77;;
44434;SDS011;30138;20.964;105.830;2022-11-04T10:14:28;43.45;;;28.10;;
44434;SDS011;30138;20.964;105.830;2022-11-04T10:19:59;44.90;;;28.33;;
44434;SDS011;30138;20.964;105.830;2022-11-04T10:25:22;38.55;;;27.80;;
44434;SDS011;30138;20.964;105.830;2022-11-04T10:30:36;39.90;;;28.38;;
44434;SDS011;30138;20.964;105.830;2022-11-04T10:35:47;38.97;;;28.23;;
44434;SDS011;30138;20.964;105.830;2022-11-04T10:40:59;42.53;;;30.30;;
44434;SDS011;30138;20.964;105.830;2022-11-04T10:46:10;49.05;;;30.30;;
44434;SDS011;30138;20.964;105.830;2022-11-04T10:51:30;40.97;;;30.30;;
44434;SDS011;30138;20.964;105.830;2022-11-04T10:56:39;53.05;;;33.22;;
44434;SDS011;30138;20.964;105.830;2022-11-04T11:01:49;49.95;;;32.47;;
44434;SDS011;30138;20.964;105.830;2022-11-04T11:07:00;51.40;;;34.17;;
44434;SDS011;30138;20.964;105.830;2022-11-04T11:12:17;51.15;;;33.50;;
44434;SDS011;30138;20.964;105.830;2022-11-04T11:17:34;54.37;;;34.60;;
44434;SDS011;30138;20.964;105.830;2022-11-04T11:22:46;52.63;;;35.60;;
44434;SDS011;30138;20.964;105.830;2022-11-04T11:27:55;59.30;;;37.08;;
44434;SDS011;30138;20.964;105.830;2022-11-04T11:33:05;57.42;;;36.00;;
44434;SDS011;30138;20.964;105.830;2022-11-04T11:38:22;59.95;;;37.10;;
44434;SDS011;30138;20.964;105.830;2022-11-04T11:43:31;63.35;;;39.97;;
44434;SDS011;30138;20.964;105.830;2022-11-04T11:48:40;60.58;;;40.03;;
44434;SDS011;30138;20.964;105.830;2022-11-04T11:54:12;65.25;;;41.33;;
44434;SDS011;30138;20.964;105.830;2022-11-04T11:59:25;91.35;;;53.30;;
44434;SDS011;30138;20.964;105.830;2022-11-04T12:04:41;109.07;;;61.13;;
44434;SDS011;30138;20.964;105.830;2022-11-04T12:09:51;103.30;;;59.22;;
44434;SDS011;30138;20.964;105.830;2022-11-04T12:15:20;100.13;;;57.35;;
44434;SDS011;30138;20.964;105.830;2022-11-04T12:20:45;92.63;;;56.80;;
44434;SDS011;30138;20.964;105.830;2022-11-04T12:26:01;83.88;;;54.80;;
44434;SDS011;30138;20.964;105.830;2022-11-04T12:31:23;90.63;;;57.15;;
44434;SDS011;30138;20.964;105.830;2022-11-04T12:36:44;90.40;;;57.87;;
44434;SDS011;30138;20.964;105.830;2022-11-04T12:42:11;96.70;;;55.92;;
44434;SDS011;30138;20.964;105.830;2022-11-04T12:47:27;95.13;;;56.35;;
44434;SDS011;30138;20.964;105.830;2022-11-04T12:52:44;87.07;;;56.10;;
44434;SDS011;30138;20.964;105.830;2022-11-04T12:58:32;87.93;;;55.55;;
44434;SDS011;30138;20.964;105.830;2022-11-04T13:03:54;97.75;;;58.22;;
44434;SDS011;30138;20.964;105.830;2022-11-04T13:09:08;101.57;;;62.17;;
44434;SDS011;30138;20.964;105.830;2022-11-04T13:14:22;113.65;;;66.32;;
44434;SDS011;30138;20.964;105.830;2022-11-04T13:19:33;127.38;;;74.90;;
44434;SDS011;30138;20.964;105.830;2022-11-04T13:24:47;123.53;;;69.55;;
44434;SDS011;30138;20.964;105.830;2022-11-04T13:30:03;114.15;;;69.70;;
44434;SDS011;30138;20.964;105.830;2022-11-04T13:35:17;121.22;;;71.07;;
44434;SDS011;30138;20.964;105.830;2022-11-04T13:40:37;136.57;;;77.57;;
44434;SDS011;30138;20.964;105.830;2022-11-04T13:45:56;148.32;;;86.78;;
44434;SDS011;30138;20.964;105.830;2022-11-04T13:51:04;164.13;;;93.10;;
44434;SDS011;30138;20.964;105.830;2022-11-04T13:56:25;161.82;;;92.70;;
44434;SDS011;30138;20.964;105.830;2022-11-04T14:01:37;167.57;;;101.05;;
44434;SDS011;30138;20.964;105.830;2022-11-04T14:06:56;161.63;;;97.50;;
44434;SDS011;30138;20.964;105.830;2022-11-04T14:18:01;158.75;;;92.65;;
44434;SDS011;30138;20.964;105.830;2022-11-04T14:23:17;141.70;;;88.13;;
44434;SDS011;30138;20.964;105.830;2022-11-04T14:28:27;142.95;;;86.47;;
44434;SDS011;30138;20.964;105.830;2022-11-04T14:33:38;131.50;;;83.00;;
44434;SDS011;30138;20.964;105.830;2022-11-04T14:39:05;133.63;;;81.32;;
44434;SDS011;30138;20.964;105.830;2022-11-04T14:49:41;123.23;;;77.60;;
44434;SDS011;30138;20.964;105.830;2022-11-04T14:54:50;125.15;;;76.97;;
44434;SDS011;30138;20.964;105.830;2022-11-04T15:05:35;109.50;;;68.00;;
44434;SDS011;30138;20.964;105.830;2022-11-04T15:10:47;110.43;;;68.37;;
44434;SDS011;30138;20.964;105.830;2022-11-04T15:15:54;110.90;;;69.80;;
44434;SDS011;30138;20.964;105.830;2022-11-04T15:21:10;104.40;;;66.22;;
44434;SDS011;30138;20.964;105.830;2022-11-04T15:26:32;105.90;;;64.68;;
44434;SDS011;30138;20.964;105.830;2022-11-04T15:31:49;111.63;;;65.40;;
44434;SDS011;30138;20.964;105.830;2022-11-04T15:37:01;108.72;;;65.72;;
44434;SDS011;30138;20.964;105.830;2022-11-04T15:42:10;106.22;;;65.03;;
44434;SDS011;30138;20.964;105.830;2022-11-04T15:47:40;110.18;;;72.43;;
44434;SDS011;30138;20.964;105.830;2022-11-04T15:52:50;115.93;;;76.70;;
44434;SDS011;30138;20.964;105.830;2022-11-04T15:57:59;130.30;;;79.00;;
44434;SDS011;30138;20.964;105.830;2022-11-04T16:03:13;124.30;;;80.43;;
44434;SDS011;30138;20.964;105.830;2022-11-04T16:08:26;130.25;;;85.13;;
44434;SDS011;30138;20.964;105.830;2022-11-04T16:13:33;134.30;;;87.77;;
44434;SDS011;30138;20.964;105.830;2022-11-04T16:18:40;144.77;;;90.95;;
44434;SDS011;30138;20.964;105.830;2022-11-04T16:23:53;154.77;;;90.78;;
44434;SDS011;30138;20.964;105.830;2022-11-04T16:29:05;145.02;;;90.88;;
44434;SDS011;30138;20.964;105.830;2022-11-04T16:34:17;141.15;;;87.85;;
44434;SDS011;30138;20.964;105.830;2022-11-04T16:39:25;139.88;;;87.18;;
44434;SDS011;30138;20.964;105.830;2022-11-04T16:44:33;144.13;;;89.68;;
44434;SDS011;30138;20.964;105.830;2022-11-04T16:49:40;139.13;;;86.32;;
44434;SDS011;30138;20.964;105.830;2022-11-04T16:54:48;135.95;;;84.00;;
44434;SDS011;30138;20.964;105.830;2022-11-04T16:59:59;141.60;;;83.03;;
44434;SDS011;30138;20.964;105.830;2022-11-04T17:05:07;132.80;;;82.35;;
44434;SDS011;30138;20.964;105.830;2022-11-04T17:10:16;118.93;;;75.57;;
44434;SDS011;30138;20.964;105.830;2022-11-04T17:20:49;110.85;;;70.20;;
44434;SDS011;30138;20.964;105.830;2022-11-04T17:26:02;112.93;;;71.30;;
44434;SDS011;30138;20.964;105.830;2022-11-04T17:31:17;109.80;;;67.97;;
44434;SDS011;30138;20.964;105.830;2022-11-04T17:36:24;108.60;;;68.35;;
44434;SDS011;30138;20.964;105.830;2022-11-04T17:41:33;106.53;;;66.22;;
44434;SDS011;30138;20.964;105.830;2022-11-04T17:46:56;122.47;;;69.85;;
44434;SDS011;30138;20.964;105.830;2022-11-04T17:52:02;122.85;;;69.82;;
44434;SDS011;30138;20.964;105.830;2022-11-04T17:57:11;113.47;;;70.85;;
44434;SDS011;30138;20.964;105.830;2022-11-04T18:02:18;117.28;;;68.65;;
44434;SDS011;30138;20.964;105.830;2022-11-04T18:07:24;123.00;;;68.18;;
44434;SDS011;30138;20.964;105.830;2022-11-04T18:12:33;104.82;;;66.70;;
44434;SDS011;30138;20.964;105.830;2022-11-04T18:17:42;110.45;;;66.07;;
44434;SDS011;30138;20.964;105.830;2022-11-04T18:22:50;107.63;;;65.53;;
44434;SDS011;30138;20.964;105.830;2022-11-04T18:27:58;106.53;;;63.17;;
44434;SDS011;30138;20.964;105.830;2022-11-04T18:33:05;101.72;;;62.40;;
44434;SDS011;30138;20.964;105.830;2022-11-04T18:38:12;101.38;;;61.20;;
44434;SDS011;30138;20.964;105.830;2022-11-04T18:43:20;94.50;;;60.35;;
44434;SDS011;30138;20.964;105.830;2022-11-04T18:48:26;103.15;;;62.20;;
44434;SDS011;30138;20.964;105.830;2022-11-04T18:53:33;101.80;;;61.65;;
44434;SDS011;30138;20.964;105.830;2022-11-04T18:58:42;102.90;;;60.63;;
44434;SDS011;30138;20.964;105.830;2022-11-04T19:03:48;95.15;;;59.15;;
44434;SDS011;30138;20.964;105.830;2022-11-04T19:08:56;97.97;;;57.67;;
44434;SDS011;30138;20.964;105.830;2022-11-04T19:14:07;87.97;;;54.63;;
44434;SDS011;30138;20.964;105.830;2022-11-04T19:19:16;89.70;;;54.75;;
44434;SDS011;30138;20.964;105.830;2022-11-04T19:24:23;93.55;;;56.55;;
44434;SDS011;30138;20.964;105.830;2022-11-04T19:29:31;91.13;;;55.17;;
44434;SDS011;30138;20.964;105.830;2022-11-04T19:34:37;79.70;;;52.97;;
44434;SDS011;30138;20.964;105.830;2022-11-04T19:39:43;89.45;;;50.90;;
44434;SDS011;30138;20.964;105.830;2022-11-04T19:44:52;77.93;;;49.42;;
44434;SDS011;30138;20.964;105.830;2022-11-04T19:49:58;74.00;;;49.47;;
44434;SDS011;30138;20.964;105.830;2022-11-04T19:55:05;86.30;;;49.67;;
44434;SDS011;30138;20.964;105.830;2022-11-04T20:00:17;82.70;;;50.27;;
44434;SDS011;30138;20.964;105.830;2022-11-04T20:05:25;83.57;;;50.20;;
44434;SDS011;30138;20.964;105.830;2022-11-04T20:10:32;81.45;;;47.88;;
44434;SDS011;30138;20.964;105.830;2022-11-04T20:15:42;82.15;;;49.33;;
44434;SDS011;30138;20.964;105.830;2022-11-04T20:20:48;76.18;;;48.15;;
44434;SDS011;30138;20.964;105.830;2022-11-04T20:25:54;83.45;;;48.53;;
44434;SDS011;30138;20.964;105.830;2022-11-04T20:31:13;87.55;;;49.33;;
44434;SDS011;30138;20.964;105.830;2022-11-04T20:36:22;82.57;;;50.03;;
44434;SDS011;30138;20.964;105.830;2022-11-04T20:41:30;81.78;;;48.88;;
44434;SDS011;30138;20.964;105.830;2022-11-04T20:46:39;77.88;;;48.05;;
44434;SDS011;30138;20.964;105.830;2022-11-04T20:51:46;76.07;;;47.70;;
44434;SDS011;30138;20.964;105.830;2022-11-04T20:56:53;80.60;;;48.85;;
44434;SDS011;30138;20.964;105.830;2022-11-04T21:02:01;80.43;;;47.13;;
44434;SDS011;30138;20.964;105.830;2022-11-04T21:07:08;85.88;;;49.28;;
44434;SDS011;30138;20.964;105.830;2022-11-04T21:12:15;77.15;;;45.97;;
44434;SDS011;30138;20.964;105.830;2022-11-04T21:17:23;80.90;;;47.42;;
44434;SDS011;30138;20.964;105.830;2022-11-04T21:22:30;79.45;;;48.20;;
44434;SDS011;30138;20.964;105.830;2022-11-04T21:27:36;74.35;;;48.10;;
44434;SDS011;30138;20.964;105.830;2022-11-04T21:32:44;81.65;;;49.05;;
44434;SDS011;30138;20.964;105.830;2022-11-04T21:37:51;85.68;;;49.65;;
44434;SDS011;30138;20.964;105.830;2022-11-04T21:42:57;86.15;;;48.20;;
44434;SDS011;30138;20.964;105.830;2022-11-04T21:48:07;80.30;;;47.17;;
44434;SDS011;30138;20.964;105.830;2022-11-04T21:53:14;87.88;;;48.38;;
44434;SDS011;30138;20.964;105.830;2022-11-04T21:58:21;83.53;;;49.10;;
44434;SDS011;30138;20.964;105.830;2022-11-04T22:03:29;90.88;;;52.63;;
44434;SDS011;30138;20.964;105.830;2022-11-04T22:08:37;107.88;;;61.35;;
44434;SDS011;30138;20.964;105.830;2022-11-04T22:13:52;133.43;;;75.80;;
44434;SDS011;30138;20.964;105.830;2022-11-04T22:19:02;194.90;;;113.43;;
44434;SDS011;30138;20.964;105.830;2022-11-04T22:24:11;226.63;;;125.80;;
44434;SDS011;30138;20.964;105.830;2022-11-04T22:29:20;233.73;;;128.05;;
44434;SDS011;30138;20.964;105.830;2022-11-04T22:34:29;241.90;;;136.85;;
44434;SDS011;30138;20.964;105.830;2022-11-04T22:39:35;243.70;;;136.57;;
44434;SDS011;30138;20.964;105.830;2022-11-04T22:44:42;267.27;;;146.88;;
44434;SDS011;30138;20.964;105.830;2022-11-04T22:49:51;284.85;;;154.65;;
44434;SDS011;30138;20.964;105.830;2022-11-04T22:54:58;270.95;;;159.38;;
44434;SDS011;30138;20.964;105.830;2022-11-04T23:00:06;283.08;;;163.05;;
44434;SDS011;30138;20.964;105.830;2022-11-04T23:05:17;281.50;;;163.90;;
44434;SDS011;30138;20.964;105.830;2022-11-04T23:10:23;270.08;;;157.73;;
44434;SDS011;30138;20.964;105.830;2022-11-04T23:15:46;267.85;;;154.13;;
44434;SDS011;30138;20.964;105.830;2022-11-04T23:21:11;251.18;;;146.70;;
44434;SDS011;30138;20.964;105.830;2022-11-04T23:26:50;238.73;;;147.02;;
44434;SDS011;30138;20.964;105.830;2022-11-04T23:31:57;243.27;;;138.50;;
44434;SDS011;30138;20.964;105.830;2022-11-04T23:37:07;232.00;;;138.50;;
44434;SDS011;30138;20.964;105.830;2022-11-04T23:42:18;229.10;;;137.90;;
44434;SDS011;30138;20.964;105.830;2022-11-04T23:47:25;227.70;;;135.07;;
44434;SDS011;30138;20.964;105.830;2022-11-04T23:52:49;217.57;;;133.38;;
44434;SDS011;30138;20.964;105.830;2022-11-04T23:58:12;211.98;;;131.82;;
